sensor_id;sensor_type;location;lat;lon;timestamp;pressure;altitude;pressure_sealevel;temperature;humidity
71791;BME280;59638;52.126;5.434;2022-07-30T00:01:13;102000.13;;;15.55;93.60
71791;BME280;59638;52.126;5.434;2022-07-30T00:03:40;101998.72;;;15.50;93.83
71791;BME280;59638;52.126;5.434;2022-07-30T00:06:06;101997.88;;;15.50;93.60
71791;BME280;59638;52.126;5.434;2022-07-30T00:08:33;102002.34;;;15.49;93.89
71791;BME280;59638;52.126;5.434;2022-07-30T00:10:59;102006.84;;;15.49;94.02
71791;BME280;59638;52.126;5.434;2022-07-30T00:13:26;102001.25;;;15.42;94.06
71791;BME280;59638;52.126;5.434;2022-07-30T00:15:52;102004.22;;;15.39;93.93
71791;BME280;59638;52.126;5.434;2022-07-30T00:18:18;101995.50;;;15.37;94.27
71791;BME280;59638;52.126;5.434;2022-07-30T00:20:47;101988.06;;;15.31;94.20
71791;BME280;59638;52.126;5.434;2022-07-30T00:23:14;101992.03;;;15.27;93.92
71791;BME280;59638;52.126;5.434;2022-07-30T00:25:41;101988.94;;;15.22;94.12
71791;BME280;59638;52.126;5.434;2022-07-30T00:28:07;101993.13;;;15.15;94.50
71791;BME280;59638;52.126;5.434;2022-07-30T00:30:33;101992.28;;;15.14;94.28
71791;BME280;59638;52.126;5.434;2022-07-30T00:33:00;101997.22;;;15.19;94.57
71791;BME280;59638;52.126;5.434;2022-07-30T00:35:27;101990.91;;;15.20;94.47
71791;BME280;59638;52.126;5.434;2022-07-30T00:37:54;101996.22;;;15.20;94.27
71791;BME280;59638;52.126;5.434;2022-07-30T00:40:20;101985.59;;;15.20;94.43
71791;BME280;59638;52.126;5.434;2022-07-30T00:42:47;101982.19;;;15.18;94.43
71791;BME280;59638;52.126;5.434;2022-07-30T00:45:15;101991.16;;;15.17;94.47
71791;BME280;59638;52.126;5.434;2022-07-30T00:47:41;101986.41;;;15.11;94.48
71791;BME280;59638;52.126;5.434;2022-07-30T00:50:10;101981.94;;;15.02;94.79
71791;BME280;59638;52.126;5.434;2022-07-30T00:52:38;101985.13;;;14.95;94.86
71791;BME280;59638;52.126;5.434;2022-07-30T00:55:06;101983.03;;;14.89;95.09
71791;BME280;59638;52.126;5.434;2022-07-30T00:57:34;101981.34;;;14.88;95.11
71791;BME280;59638;52.126;5.434;2022-07-30T01:00:00;101985.25;;;14.84;95.25
71791;BME280;59638;52.126;5.434;2022-07-30T01:02:27;101991.56;;;14.74;95.29
71791;BME280;59638;52.126;5.434;2022-07-30T01:04:53;101986.34;;;14.72;95.23
71791;BME280;59638;52.126;5.434;2022-07-30T01:07:20;101989.69;;;14.64;95.04
71791;BME280;59638;52.126;5.434;2022-07-30T01:09:49;101981.31;;;14.59;95.12
71791;BME280;59638;52.126;5.434;2022-07-30T01:12:19;101981.00;;;14.53;95.45
71791;BME280;59638;52.126;5.434;2022-07-30T01:14:47;101983.53;;;14.54;95.23
71791;BME280;59638;52.126;5.434;2022-07-30T01:17:14;101981.84;;;14.53;95.53
71791;BME280;59638;52.126;5.434;2022-07-30T01:19:41;101978.75;;;14.58;95.62
71791;BME280;59638;52.126;5.434;2022-07-30T01:27:32;101974.56;;;14.55;95.69
71791;BME280;59638;52.126;5.434;2022-07-30T01:30:02;101968.41;;;14.55;95.87
71791;BME280;59638;52.126;5.434;2022-07-30T01:32:30;101972.91;;;14.54;95.99
71791;BME280;59638;52.126;5.434;2022-07-30T01:34:59;101977.63;;;14.51;95.96
71791;BME280;59638;52.126;5.434;2022-07-30T01:37:28;101965.63;;;14.47;95.99
71791;BME280;59638;52.126;5.434;2022-07-30T01:39:55;101974.50;;;14.46;95.96
71791;BME280;59638;52.126;5.434;2022-07-30T01:42:23;101979.66;;;14.37;95.91
71791;BME280;59638;52.126;5.434;2022-07-30T01:44:52;101977.81;;;14.28;95.85
71791;BME280;59638;52.126;5.434;2022-07-30T01:47:20;101978.50;;;14.21;96.18
71791;BME280;59638;52.126;5.434;2022-07-30T01:49:48;101983.22;;;14.17;96.21
71791;BME280;59638;52.126;5.434;2022-07-30T01:52:17;101976.38;;;14.24;95.94
71791;BME280;59638;52.126;5.434;2022-07-30T01:54:47;101973.59;;;14.26;96.06
71791;BME280;59638;52.126;5.434;2022-07-30T01:57:16;101974.47;;;14.26;96.16
71791;BME280;59638;52.126;5.434;2022-07-30T01:59:48;101976.97;;;14.28;96.10
71791;BME280;59638;52.126;5.434;2022-07-30T02:02:15;101979.78;;;14.26;96.47
71791;BME280;59638;52.126;5.434;2022-07-30T02:04:43;101985.09;;;14.26;96.52
71791;BME280;59638;52.126;5.434;2022-07-30T02:07:20;101987.59;;;14.28;96.55
71791;BME280;59638;52.126;5.434;2022-07-30T02:10:00;101984.09;;;14.27;96.31
71791;BME280;59638;52.126;5.434;2022-07-30T02:12:28;101981.97;;;14.21;96.30
71791;BME280;59638;52.126;5.434;2022-07-30T02:15:13;101979.72;;;14.17;96.50
71791;BME280;59638;52.126;5.434;2022-07-30T02:17:49;101976.91;;;14.18;96.24
71791;BME280;59638;52.126;5.434;2022-07-30T02:20:20;101981.16;;;14.21;96.50
71791;BME280;59638;52.126;5.434;2022-07-30T02:22:56;101980.88;;;14.24;96.46
71791;BME280;59638;52.126;5.434;2022-07-30T02:25:24;101983.66;;;14.22;96.34
71791;BME280;59638;52.126;5.434;2022-07-30T02:27:56;101980.84;;;14.14;96.74
71791;BME280;59638;52.126;5.434;2022-07-30T02:30:29;101982.50;;;14.15;96.71
71791;BME280;59638;52.126;5.434;2022-07-30T02:33:07;101975.53;;;14.14;96.79
71791;BME280;59638;52.126;5.434;2022-07-30T02:35:37;101982.75;;;14.12;96.64
71791;BME280;59638;52.126;5.434;2022-07-30T02:38:04;101977.72;;;14.09;96.43
71791;BME280;59638;52.126;5.434;2022-07-30T02:40:31;101984.41;;;14.03;96.77
71791;BME280;59638;52.126;5.434;2022-07-30T02:42:59;101990.25;;;13.97;96.68
71791;BME280;59638;52.126;5.434;2022-07-30T02:45:26;101991.88;;;13.88;96.67
71791;BME280;59638;52.126;5.434;2022-07-30T02:47:58;101993.47;;;13.80;96.18
71791;BME280;59638;52.126;5.434;2022-07-30T02:50:27;101987.22;;;13.81;96.74
71791;BME280;59638;52.126;5.434;2022-07-30T02:52:56;101990.00;;;13.79;96.66
71791;BME280;59638;52.126;5.434;2022-07-30T02:55:25;101993.47;;;13.80;96.79
71791;BME280;59638;52.126;5.434;2022-07-30T02:57:54;101990.72;;;13.81;97.12
71791;BME280;59638;52.126;5.434;2022-07-30T03:00:23;101988.06;;;13.81;96.87
71791;BME280;59638;52.126;5.434;2022-07-30T03:02:51;101983.41;;;13.74;97.03
71791;BME280;59638;52.126;5.434;2022-07-30T03:05:22;101988.84;;;13.72;97.00
71791;BME280;59638;52.126;5.434;2022-07-30T03:07:50;101984.78;;;13.68;97.04
71791;BME280;59638;52.126;5.434;2022-07-30T03:10:17;101989.63;;;13.63;96.85
71791;BME280;59638;52.126;5.434;2022-07-30T03:12:44;101981.66;;;13.63;97.01
71791;BME280;59638;52.126;5.434;2022-07-30T03:15:12;101988.91;;;13.61;97.05
71791;BME280;59638;52.126;5.434;2022-07-30T03:17:44;101986.78;;;13.55;96.94
71791;BME280;59638;52.126;5.434;2022-07-30T03:20:16;101987.75;;;13.54;96.87
71791;BME280;59638;52.126;5.434;2022-07-30T03:22:47;101984.97;;;13.55;97.11
71791;BME280;59638;52.126;5.434;2022-07-30T03:25:19;101989.44;;;13.55;96.83
71791;BME280;59638;52.126;5.434;2022-07-30T03:27:48;101992.31;;;13.52;97.01
71791;BME280;59638;52.126;5.434;2022-07-30T03:30:15;101995.13;;;13.50;97.13
71791;BME280;59638;52.126;5.434;2022-07-30T03:32:42;101995.38;;;13.47;97.03
71791;BME280;59638;52.126;5.434;2022-07-30T03:35:09;101988.28;;;13.48;97.02
71791;BME280;59638;52.126;5.434;2022-07-30T03:37:43;101996.22;;;13.48;97.08
71791;BME280;59638;52.126;5.434;2022-07-30T03:40:10;101996.94;;;13.50;96.82
71791;BME280;59638;52.126;5.434;2022-07-30T03:42:37;101991.63;;;13.50;97.02
71791;BME280;59638;52.126;5.434;2022-07-30T03:45:05;101986.56;;;13.47;97.10
71791;BME280;59638;52.126;5.434;2022-07-30T03:47:36;101992.41;;;13.41;96.91
71791;BME280;59638;52.126;5.434;2022-07-30T03:50:04;101995.66;;;13.33;97.10
71791;BME280;59638;52.126;5.434;2022-07-30T03:52:32;101985.19;;;13.31;97.29
71791;BME280;59638;52.126;5.434;2022-07-30T03:55:01;101995.09;;;13.29;96.88
71791;BME280;59638;52.126;5.434;2022-07-30T03:57:28;101997.28;;;13.24;97.15
71791;BME280;59638;52.126;5.434;2022-07-30T03:59:55;101997.75;;;13.18;96.96
71791;BME280;59638;52.126;5.434;2022-07-30T04:02:21;101994.41;;;13.16;97.20
71791;BME280;59638;52.126;5.434;2022-07-30T04:04:48;101996.78;;;13.19;96.95
71791;BME280;59638;52.126;5.434;2022-07-30T04:07:14;102004.03;;;13.17;97.29
71791;BME280;59638;52.126;5.434;2022-07-30T04:09:41;102002.09;;;13.19;97.11
71791;BME280;59638;52.126;5.434;2022-07-30T04:12:07;102007.88;;;13.24;97.13
71791;BME280;59638;52.126;5.434;2022-07-30T04:14:39;102009.34;;;13.28;97.32
71791;BME280;59638;52.126;5.434;2022-07-30T04:17:11;102009.56;;;13.25;97.16
71791;BME280;59638;52.126;5.434;2022-07-30T04:19:47;102010.69;;;13.23;97.27
71791;BME280;59638;52.126;5.434;2022-07-30T04:22:19;102011.75;;;13.20;97.42
71791;BME280;59638;52.126;5.434;2022-07-30T04:24:47;102010.88;;;13.20;97.10
71791;BME280;59638;52.126;5.434;2022-07-30T04:27:15;102020.63;;;13.19;97.43
71791;BME280;59638;52.126;5.434;2022-07-30T04:29:42;102009.97;;;13.21;97.09
71791;BME280;59638;52.126;5.434;2022-07-30T04:32:08;102012.81;;;13.18;96.87
71791;BME280;59638;52.126;5.434;2022-07-30T04:34:35;102016.56;;;13.15;97.07
71791;BME280;59638;52.126;5.434;2022-07-30T04:37:02;102017.28;;;13.17;97.14
71791;BME280;59638;52.126;5.434;2022-07-30T04:39:29;102022.59;;;13.17;97.36
71791;BME280;59638;52.126;5.434;2022-07-30T04:41:55;102020.63;;;13.19;97.57
71791;BME280;59638;52.126;5.434;2022-07-30T04:44:22;102033.19;;;13.17;97.20
71791;BME280;59638;52.126;5.434;2022-07-30T04:46:48;102033.91;;;13.19;97.13
71791;BME280;59638;52.126;5.434;2022-07-30T04:49:15;102032.22;;;13.18;97.20
71791;BME280;59638;52.126;5.434;2022-07-30T04:51:43;102030.78;;;13.25;97.50
71791;BME280;59638;52.126;5.434;2022-07-30T04:54:12;102032.78;;;13.33;97.49
71791;BME280;59638;52.126;5.434;2022-07-30T04:56:44;102031.22;;;13.42;97.13
71791;BME280;59638;52.126;5.434;2022-07-30T04:59:20;102036.44;;;13.53;97.18
71791;BME280;59638;52.126;5.434;2022-07-30T05:01:48;102025.09;;;13.62;97.11
71791;BME280;59638;52.126;5.434;2022-07-30T05:04:17;102025.97;;;13.72;97.15
71791;BME280;59638;52.126;5.434;2022-07-30T05:06:44;102027.75;;;13.83;97.11
71791;BME280;59638;52.126;5.434;2022-07-30T05:09:13;102030.72;;;13.90;97.01
71791;BME280;59638;52.126;5.434;2022-07-30T05:11:41;102030.19;;;13.96;96.99
71791;BME280;59638;52.126;5.434;2022-07-30T05:14:07;102029.91;;;13.99;96.61
71791;BME280;59638;52.126;5.434;2022-07-30T05:16:34;102034.72;;;14.05;96.61
71791;BME280;59638;52.126;5.434;2022-07-30T05:19:00;102030.56;;;14.12;96.62
71791;BME280;59638;52.126;5.434;2022-07-30T05:21:32;102037.03;;;14.19;96.78
71791;BME280;59638;52.126;5.434;2022-07-30T05:23:59;102024.63;;;14.29;96.46
71791;BME280;59638;52.126;5.434;2022-07-30T05:26:25;102022.88;;;14.39;96.47
71791;BME280;59638;52.126;5.434;2022-07-30T05:28:53;102027.72;;;14.55;96.09
71791;BME280;59638;52.126;5.434;2022-07-30T05:31:22;102040.94;;;14.76;95.75
71791;BME280;59638;52.126;5.434;2022-07-30T05:33:50;102038.41;;;14.84;95.61
71791;BME280;59638;52.126;5.434;2022-07-30T05:36:17;102039.31;;;14.94;95.34
71791;BME280;59638;52.126;5.434;2022-07-30T05:38:43;102040.13;;;15.05;95.32
71791;BME280;59638;52.126;5.434;2022-07-30T05:41:10;102042.69;;;15.16;94.87
71791;BME280;59638;52.126;5.434;2022-07-30T05:43:56;102045.22;;;15.27;93.87
71791;BME280;59638;52.126;5.434;2022-07-30T05:46:22;102033.88;;;15.44;93.37
71791;BME280;59638;52.126;5.434;2022-07-30T05:48:49;102036.69;;;15.53;92.66
71791;BME280;59638;52.126;5.434;2022-07-30T05:51:16;102051.97;;;15.70;91.33
71791;BME280;59638;52.126;5.434;2022-07-30T05:53:44;102044.66;;;15.82;91.77
71791;BME280;59638;52.126;5.434;2022-07-30T05:56:10;102050.69;;;15.93;91.38
71791;BME280;59638;52.126;5.434;2022-07-30T05:58:37;102050.53;;;16.04;90.68
71791;BME280;59638;52.126;5.434;2022-07-30T06:01:04;102046.97;;;16.14;90.84
71791;BME280;59638;52.126;5.434;2022-07-30T06:03:30;102051.59;;;16.21;90.15
71791;BME280;59638;52.126;5.434;2022-07-30T06:05:57;102054.81;;;16.25;89.67
71791;BME280;59638;52.126;5.434;2022-07-30T06:08:23;102064.19;;;16.29;88.61
71791;BME280;59638;52.126;5.434;2022-07-30T06:10:50;102059.50;;;16.41;88.73
71791;BME280;59638;52.126;5.434;2022-07-30T06:13:16;102060.75;;;16.46;88.11
71791;BME280;59638;52.126;5.434;2022-07-30T06:15:42;102062.28;;;16.49;87.65
71791;BME280;59638;52.126;5.434;2022-07-30T06:18:09;102059.88;;;16.55;87.32
71791;BME280;59638;52.126;5.434;2022-07-30T06:20:35;102066.84;;;16.66;87.42
71791;BME280;59638;52.126;5.434;2022-07-30T06:23:02;102062.91;;;16.70;86.76
71791;BME280;59638;52.126;5.434;2022-07-30T06:25:28;102063.97;;;16.87;85.80
71791;BME280;59638;52.126;5.434;2022-07-30T06:27:54;102061.19;;;17.06;85.52
71791;BME280;59638;52.126;5.434;2022-07-30T06:30:21;102059.66;;;17.22;85.25
71791;BME280;59638;52.126;5.434;2022-07-30T06:32:56;102078.28;;;17.31;84.21
71791;BME280;59638;52.126;5.434;2022-07-30T06:35:23;102066.84;;;17.39;82.93
71791;BME280;59638;52.126;5.434;2022-07-30T06:37:49;102078.28;;;17.49;82.49
71791;BME280;59638;52.126;5.434;2022-07-30T06:40:33;102076.75;;;17.64;81.58
71791;BME280;59638;52.126;5.434;2022-07-30T06:42:59;102078.53;;;17.74;81.63
71791;BME280;59638;52.126;5.434;2022-07-30T06:45:26;102075.00;;;17.91;80.45
71791;BME280;59638;52.126;5.434;2022-07-30T06:47:56;102074.38;;;17.97;80.17
71791;BME280;59638;52.126;5.434;2022-07-30T06:50:24;102075.81;;;18.09;78.99
71791;BME280;59638;52.126;5.434;2022-07-30T06:52:51;102079.09;;;18.29;79.07
71791;BME280;59638;52.126;5.434;2022-07-30T06:55:17;102085.75;;;18.59;79.33
71791;BME280;59638;52.126;5.434;2022-07-30T06:57:44;102077.34;;;18.80;78.35
71791;BME280;59638;52.126;5.434;2022-07-30T07:00:11;102072.84;;;18.81;78.94
71791;BME280;59638;52.126;5.434;2022-07-30T07:02:37;102064.31;;;18.77;77.44
71791;BME280;59638;52.126;5.434;2022-07-30T07:05:04;102067.88;;;18.94;76.74
71791;BME280;59638;52.126;5.434;2022-07-30T07:07:33;102071.31;;;19.37;75.13
71791;BME280;59638;52.126;5.434;2022-07-30T07:10:07;102060.72;;;20.33;74.69
71791;BME280;59638;52.126;5.434;2022-07-30T07:12:34;102061.13;;;21.31;69.14
71791;BME280;59638;52.126;5.434;2022-07-30T07:15:00;102064.78;;;20.76;70.00
71791;BME280;59638;52.126;5.434;2022-07-30T07:17:27;102068.38;;;20.60;68.60
71791;BME280;59638;52.126;5.434;2022-07-30T07:19:53;102075.19;;;20.16;70.82
71791;BME280;59638;52.126;5.434;2022-07-30T07:22:27;102072.94;;;20.44;70.81
71791;BME280;59638;52.126;5.434;2022-07-30T07:24:54;102067.22;;;20.47;70.19
71791;BME280;59638;52.126;5.434;2022-07-30T07:27:20;102074.91;;;20.58;70.90
71791;BME280;59638;52.126;5.434;2022-07-30T07:29:47;102072.34;;;21.04;69.71
71791;BME280;59638;52.126;5.434;2022-07-30T07:32:30;102072.78;;;22.37;65.39
71791;BME280;59638;52.126;5.434;2022-07-30T07:34:56;102065.38;;;23.19;61.06
71791;BME280;59638;52.126;5.434;2022-07-30T07:37:23;102073.97;;;23.72;59.32
71791;BME280;59638;52.126;5.434;2022-07-30T07:39:49;102083.47;;;22.60;60.64
71791;BME280;59638;52.126;5.434;2022-07-30T07:42:16;102087.41;;;21.67;63.20
71791;BME280;59638;52.126;5.434;2022-07-30T07:44:42;102087.25;;;22.50;63.00
71791;BME280;59638;52.126;5.434;2022-07-30T07:47:08;102091.53;;;22.60;61.04
71791;BME280;59638;52.126;5.434;2022-07-30T07:49:35;102090.03;;;21.29;62.78
71791;BME280;59638;52.126;5.434;2022-07-30T07:52:01;102086.75;;;21.11;66.55
71791;BME280;59638;52.126;5.434;2022-07-30T07:54:28;102076.66;;;22.64;59.74
71791;BME280;59638;52.126;5.434;2022-07-30T07:56:55;102079.72;;;23.48;59.66
71791;BME280;59638;52.126;5.434;2022-07-30T07:59:22;102080.63;;;24.32;58.77
71791;BME280;59638;52.126;5.434;2022-07-30T08:01:56;102070.28;;;25.45;53.90
71791;BME280;59638;52.126;5.434;2022-07-30T08:04:23;102072.78;;;25.66;51.50
71791;BME280;59638;52.126;5.434;2022-07-30T08:06:49;102077.81;;;25.83;52.10
71791;BME280;59638;52.126;5.434;2022-07-30T08:09:16;102084.25;;;25.95;49.65
71791;BME280;59638;52.126;5.434;2022-07-30T08:11:42;102080.53;;;25.89;49.06
71791;BME280;59638;52.126;5.434;2022-07-30T08:14:09;102075.28;;;25.94;49.70
71791;BME280;59638;52.126;5.434;2022-07-30T08:16:35;102076.53;;;26.18;50.32
71791;BME280;59638;52.126;5.434;2022-07-30T08:19:02;102072.78;;;26.84;48.17
71791;BME280;59638;52.126;5.434;2022-07-30T08:21:28;102072.53;;;26.41;49.42
71791;BME280;59638;52.126;5.434;2022-07-30T08:23:54;102070.28;;;26.11;48.58
71791;BME280;59638;52.126;5.434;2022-07-30T08:26:21;102075.44;;;26.33;48.34
71791;BME280;59638;52.126;5.434;2022-07-30T08:28:47;102060.16;;;27.16;44.52
71791;BME280;59638;52.126;5.434;2022-07-30T08:31:14;102071.81;;;26.65;47.03
71791;BME280;59638;52.126;5.434;2022-07-30T08:33:41;102068.63;;;26.88;46.17
71791;BME280;59638;52.126;5.434;2022-07-30T08:36:07;102068.97;;;26.47;47.78
71791;BME280;59638;52.126;5.434;2022-07-30T08:38:35;102073.44;;;26.79;47.39
71791;BME280;59638;52.126;5.434;2022-07-30T08:41:02;102078.06;;;26.72;47.08
71791;BME280;59638;52.126;5.434;2022-07-30T08:43:29;102073.63;;;26.00;47.13
71791;BME280;59638;52.126;5.434;2022-07-30T08:45:57;102077.78;;;26.22;46.04
71791;BME280;59638;52.126;5.434;2022-07-30T08:48:24;102073.16;;;26.36;46.05
71791;BME280;59638;52.126;5.434;2022-07-30T08:50:50;102076.94;;;26.42;45.74
71791;BME280;59638;52.126;5.434;2022-07-30T08:53:18;102069.31;;;26.70;42.50
71791;BME280;59638;52.126;5.434;2022-07-30T08:55:44;102073.75;;;27.09;40.67
71791;BME280;59638;52.126;5.434;2022-07-30T08:58:40;102070.19;;;27.09;47.67
71791;BME280;59638;52.126;5.434;2022-07-30T09:01:08;102062.53;;;27.31;43.36
71791;BME280;59638;52.126;5.434;2022-07-30T09:03:36;102062.66;;;27.43;43.14
71791;BME280;59638;52.126;5.434;2022-07-30T09:06:10;102065.78;;;27.15;42.76
71791;BME280;59638;52.126;5.434;2022-07-30T09:08:36;102072.63;;;26.72;45.70
71791;BME280;59638;52.126;5.434;2022-07-30T09:11:03;102069.84;;;27.30;44.63
71791;BME280;59638;52.126;5.434;2022-07-30T09:13:34;102070.41;;;27.64;42.51
71791;BME280;59638;52.126;5.434;2022-07-30T09:16:01;102067.22;;;27.99;39.82
71791;BME280;59638;52.126;5.434;2022-07-30T09:21:12;102081.84;;;27.98;43.54
71791;BME280;59638;52.126;5.434;2022-07-30T09:23:39;102079.13;;;28.59;42.16
71791;BME280;59638;52.126;5.434;2022-07-30T09:26:06;102083.25;;;28.80;43.76
71791;BME280;59638;52.126;5.434;2022-07-30T09:28:33;102077.78;;;29.59;38.13
71791;BME280;59638;52.126;5.434;2022-07-30T09:30:59;102094.50;;;29.02;40.09
71791;BME280;59638;52.126;5.434;2022-07-30T09:36:00;102079.75;;;28.00;42.30
71791;BME280;59638;52.126;5.434;2022-07-30T09:38:27;102086.00;;;28.43;42.99
71791;BME280;59638;52.126;5.434;2022-07-30T09:40:55;102079.56;;;28.93;39.01
71791;BME280;59638;52.126;5.434;2022-07-30T09:43:23;102079.19;;;28.71;41.46
71791;BME280;59638;52.126;5.434;2022-07-30T09:45:55;102077.34;;;28.83;39.56
71791;BME280;59638;52.126;5.434;2022-07-30T09:48:26;102078.28;;;28.95;38.96
71791;BME280;59638;52.126;5.434;2022-07-30T09:50:54;102072.06;;;28.88;39.82
71791;BME280;59638;52.126;5.434;2022-07-30T09:53:23;102076.50;;;28.53;38.08
71791;BME280;59638;52.126;5.434;2022-07-30T09:55:49;102072.56;;;28.49;39.72
71791;BME280;59638;52.126;5.434;2022-07-30T09:58:16;102068.19;;;28.66;39.37
71791;BME280;59638;52.126;5.434;2022-07-30T10:00:56;102072.69;;;29.74;37.83
71791;BME280;59638;52.126;5.434;2022-07-30T10:03:24;102073.25;;;29.64;40.04
71791;BME280;59638;52.126;5.434;2022-07-30T10:06:03;102068.53;;;30.30;36.90
71791;BME280;59638;52.126;5.434;2022-07-30T10:11:08;102066.56;;;31.23;35.92
71791;BME280;59638;52.126;5.434;2022-07-30T10:13:35;102061.72;;;30.56;35.14
71791;BME280;59638;52.126;5.434;2022-07-30T10:16:04;102053.88;;;29.84;36.78
71791;BME280;59638;52.126;5.434;2022-07-30T10:18:33;102052.59;;;29.98;36.92
71791;BME280;59638;52.126;5.434;2022-07-30T10:21:00;102049.16;;;29.91;38.54
71791;BME280;59638;52.126;5.434;2022-07-30T10:23:31;102051.47;;;31.03;36.37
71791;BME280;59638;52.126;5.434;2022-07-30T10:25:59;102048.19;;;31.01;38.33
71791;BME280;59638;52.126;5.434;2022-07-30T10:28:29;102050.56;;;30.69;33.75
71791;BME280;59638;52.126;5.434;2022-07-30T10:31:02;102057.06;;;30.80;35.63
71791;BME280;59638;52.126;5.434;2022-07-30T10:33:48;102052.44;;;30.17;35.82
71791;BME280;59638;52.126;5.434;2022-07-30T10:36:15;102054.13;;;29.29;37.58
71791;BME280;59638;52.126;5.434;2022-07-30T10:38:42;102056.25;;;29.92;37.35
71791;BME280;59638;52.126;5.434;2022-07-30T10:41:46;102052.00;;;30.60;38.71
71791;BME280;59638;52.126;5.434;2022-07-30T10:47:16;102048.47;;;30.88;37.29
71791;BME280;59638;52.126;5.434;2022-07-30T10:52:52;102061.34;;;30.76;37.26
71791;BME280;59638;52.126;5.434;2022-07-30T10:55:28;102061.66;;;30.39;36.48
71791;BME280;59638;52.126;5.434;2022-07-30T11:00:35;102058.97;;;30.16;35.35
71791;BME280;59638;52.126;5.434;2022-07-30T11:03:23;102054.91;;;30.82;35.54
71791;BME280;59638;52.126;5.434;2022-07-30T11:08:49;102046.34;;;32.25;31.86
71791;BME280;59638;52.126;5.434;2022-07-30T11:13:59;102051.34;;;29.47;38.82
71791;BME280;59638;52.126;5.434;2022-07-30T11:22:21;102052.84;;;29.43;38.71
71791;BME280;59638;52.126;5.434;2022-07-30T11:24:48;102064.22;;;28.25;40.23
71791;BME280;59638;52.126;5.434;2022-07-30T11:43:30;102044.03;;;31.27;34.21
71791;BME280;59638;52.126;5.434;2022-07-30T11:46:10;102047.66;;;31.66;34.10
71791;BME280;59638;52.126;5.434;2022-07-30T11:48:53;102036.44;;;32.18;34.76
71791;BME280;59638;52.126;5.434;2022-07-30T11:51:23;102032.44;;;32.97;31.05
71791;BME280;59638;52.126;5.434;2022-07-30T11:54:08;102039.66;;;31.77;33.93
71791;BME280;59638;52.126;5.434;2022-07-30T11:56:36;102041.13;;;31.67;33.64
71791;BME280;59638;52.126;5.434;2022-07-30T11:59:06;102040.97;;;31.40;34.64
71791;BME280;59638;52.126;5.434;2022-07-30T12:01:34;102034.81;;;32.01;34.91
71791;BME280;59638;52.126;5.434;2022-07-30T12:04:02;102040.88;;;32.25;33.23
71791;BME280;59638;52.126;5.434;2022-07-30T12:06:29;102032.88;;;32.18;34.75
71791;BME280;59638;52.126;5.434;2022-07-30T12:08:57;102023.53;;;33.39;29.79
71791;BME280;59638;52.126;5.434;2022-07-30T12:11:30;102043.44;;;33.34;34.14
71791;BME280;59638;52.126;5.434;2022-07-30T12:13:59;102044.19;;;33.24;29.88
71791;BME280;59638;52.126;5.434;2022-07-30T12:16:28;102035.06;;;32.87;31.92
71791;BME280;59638;52.126;5.434;2022-07-30T12:19:03;102033.44;;;32.20;34.68
71791;BME280;59638;52.126;5.434;2022-07-30T12:21:31;102047.81;;;30.29;34.12
71791;BME280;59638;52.126;5.434;2022-07-30T12:24:05;102048.38;;;28.77;38.86
71791;BME280;59638;52.126;5.434;2022-07-30T12:26:38;102048.22;;;27.99;38.75
71791;BME280;59638;52.126;5.434;2022-07-30T12:29:07;102050.13;;;27.73;38.21
71791;BME280;59638;52.126;5.434;2022-07-30T12:31:39;102045.44;;;28.05;41.66
71791;BME280;59638;52.126;5.434;2022-07-30T12:34:32;102036.19;;;28.13;42.62
71791;BME280;59638;52.126;5.434;2022-07-30T12:37:06;102041.63;;;28.31;37.73
71791;BME280;59638;52.126;5.434;2022-07-30T12:39:33;102035.66;;;29.08;37.26
71791;BME280;59638;52.126;5.434;2022-07-30T12:41:59;102043.22;;;30.06;35.41
71791;BME280;59638;52.126;5.434;2022-07-30T12:44:40;102036.88;;;31.09;36.96
71791;BME280;59638;52.126;5.434;2022-07-30T12:47:27;102044.63;;;29.62;38.94
71791;BME280;59638;52.126;5.434;2022-07-30T12:49:56;102046.63;;;28.53;36.90
71791;BME280;59638;52.126;5.434;2022-07-30T12:52:33;102058.06;;;27.43;39.23
71791;BME280;59638;52.126;5.434;2022-07-30T12:55:09;102058.34;;;26.97;41.59
71791;BME280;59638;52.126;5.434;2022-07-30T12:57:58;102051.28;;;26.96;41.71
71791;BME280;59638;52.126;5.434;2022-07-30T13:03:23;102043.19;;;27.27;42.76
71791;BME280;59638;52.126;5.434;2022-07-30T13:05:51;102051.28;;;26.96;40.65
71791;BME280;59638;52.126;5.434;2022-07-30T13:08:57;102043.28;;;26.69;44.08
71791;BME280;59638;52.126;5.434;2022-07-30T13:11:26;102038.91;;;26.68;42.46
71791;BME280;59638;52.126;5.434;2022-07-30T13:13:53;102036.44;;;26.60;42.53
71791;BME280;59638;52.126;5.434;2022-07-30T13:16:20;102039.84;;;26.87;44.21
71791;BME280;59638;52.126;5.434;2022-07-30T13:18:47;102037.94;;;26.94;41.21
71791;BME280;59638;52.126;5.434;2022-07-30T13:21:13;102037.28;;;26.54;43.15
71791;BME280;59638;52.126;5.434;2022-07-30T13:23:40;102045.28;;;26.29;44.60
71791;BME280;59638;52.126;5.434;2022-07-30T13:26:07;102042.22;;;25.86;41.52
71791;BME280;59638;52.126;5.434;2022-07-30T13:28:35;102025.16;;;25.52;45.50
71791;BME280;59638;52.126;5.434;2022-07-30T13:31:02;102037.03;;;25.51;44.44
71791;BME280;59638;52.126;5.434;2022-07-30T13:33:29;102043.22;;;25.25;47.66
71791;BME280;59638;52.126;5.434;2022-07-30T13:35:55;102033.84;;;25.21;44.27
71791;BME280;59638;52.126;5.434;2022-07-30T13:38:22;102032.00;;;25.35;46.67
71791;BME280;59638;52.126;5.434;2022-07-30T13:40:49;102027.66;;;25.47;44.21
71791;BME280;59638;52.126;5.434;2022-07-30T13:43:15;102028.06;;;25.64;47.09
71791;BME280;59638;52.126;5.434;2022-07-30T13:45:42;102032.19;;;26.06;46.29
71791;BME280;59638;52.126;5.434;2022-07-30T13:48:09;102031.97;;;26.14;42.75
71791;BME280;59638;52.126;5.434;2022-07-30T13:50:36;102031.38;;;26.06;41.97
71791;BME280;59638;52.126;5.434;2022-07-30T13:53:03;102028.28;;;26.02;43.00